sensor_id;sensor_type;location;lat;lon;timestamp;temperature;humidity
5868;DHT22;2960;49.142;7.768;2024-01-11T00:01:25;-2.10;51.60
5868;DHT22;2960;49.142;7.768;2024-01-11T00:03:52;-2.10;51.60
5868;DHT22;2960;49.142;7.768;2024-01-11T00:06:21;-2.20;51.60
5868;DHT22;2960;49.142;7.768;2024-01-11T00:08:48;-2.20;51.70
5868;DHT22;2960;49.142;7.768;2024-01-11T00:11:15;-2.20;51.70
5868;DHT22;2960;49.142;7.768;2024-01-11T00:13:42;-2.20;51.70
5868;DHT22;2960;49.142;7.768;2024-01-11T00:16:10;-2.20;51.70
5868;DHT22;2960;49.142;7.768;2024-01-11T00:18:37;-2.20;51.70
5868;DHT22;2960;49.142;7.768;2024-01-11T00:21:05;-2.20;51.80
5868;DHT22;2960;49.142;7.768;2024-01-11T00:23:33;-2.20;51.80
5868;DHT22;2960;49.142;7.768;2024-01-11T00:26:00;-2.20;51.80
5868;DHT22;2960;49.142;7.768;2024-01-11T00:28:27;-2.20;51.80
5868;DHT22;2960;49.142;7.768;2024-01-11T00:30:55;-2.20;51.90
5868;DHT22;2960;49.142;7.768;2024-01-11T00:33:22;-2.20;51.90
5868;DHT22;2960;49.142;7.768;2024-01-11T00:35:50;-2.20;51.90
5868;DHT22;2960;49.142;7.768;2024-01-11T00:38:17;-2.20;51.90
5868;DHT22;2960;49.142;7.768;2024-01-11T00:40:45;-2.30;51.80
5868;DHT22;2960;49.142;7.768;2024-01-11T00:43:13;-2.30;51.90
5868;DHT22;2960;49.142;7.768;2024-01-11T00:45:40;-2.30;51.90
5868;DHT22;2960;49.142;7.768;2024-01-11T00:48:08;-2.30;52.00
5868;DHT22;2960;49.142;7.768;2024-01-11T00:50:35;-2.30;52.00
5868;DHT22;2960;49.142;7.768;2024-01-11T00:53:03;-2.30;52.00
5868;DHT22;2960;49.142;7.768;2024-01-11T00:55:30;-2.30;52.10
5868;DHT22;2960;49.142;7.768;2024-01-11T00:57:59;-2.40;52.00
5868;DHT22;2960;49.142;7.768;2024-01-11T01:00:26;-2.40;52.10
5868;DHT22;2960;49.142;7.768;2024-01-11T01:02:54;-2.40;52.10
5868;DHT22;2960;49.142;7.768;2024-01-11T01:05:21;-2.40;52.10
5868;DHT22;2960;49.142;7.768;2024-01-11T01:07:48;-2.40;52.20
5868;DHT22;2960;49.142;7.768;2024-01-11T01:10:15;-2.50;52.20
5868;DHT22;2960;49.142;7.768;2024-01-11T01:12:43;-2.50;52.20
5868;DHT22;2960;49.142;7.768;2024-01-11T01:15:11;-2.50;52.20
5868;DHT22;2960;49.142;7.768;2024-01-11T01:17:40;-2.50;52.20
5868;DHT22;2960;49.142;7.768;2024-01-11T01:20:08;-2.50;52.30
5868;DHT22;2960;49.142;7.768;2024-01-11T01:22:36;-2.50;52.40
5868;DHT22;2960;49.142;7.768;2024-01-11T01:25:04;-2.50;52.50
5868;DHT22;2960;49.142;7.768;2024-01-11T01:27:35;-2.60;52.40
5868;DHT22;2960;49.142;7.768;2024-01-11T01:30:03;-2.60;52.40
5868;DHT22;2960;49.142;7.768;2024-01-11T01:32:32;-2.60;52.40
5868;DHT22;2960;49.142;7.768;2024-01-11T01:35:00;-2.60;52.50
5868;DHT22;2960;49.142;7.768;2024-01-11T01:37:27;-2.60;52.50
5868;DHT22;2960;49.142;7.768;2024-01-11T01:39:54;-2.60;52.50
5868;DHT22;2960;49.142;7.768;2024-01-11T01:42:22;-2.60;52.50
5868;DHT22;2960;49.142;7.768;2024-01-11T01:44:49;-2.70;52.50
5868;DHT22;2960;49.142;7.768;2024-01-11T01:47:17;-2.60;52.60
5868;DHT22;2960;49.142;7.768;2024-01-11T01:49:47;-2.70;52.60
5868;DHT22;2960;49.142;7.768;2024-01-11T01:52:16;-2.70;52.70
5868;DHT22;2960;49.142;7.768;2024-01-11T01:54:43;-2.80;52.60
5868;DHT22;2960;49.142;7.768;2024-01-11T01:57:11;-2.80;52.60
5868;DHT22;2960;49.142;7.768;2024-01-11T01:59:39;-2.80;52.60
5868;DHT22;2960;49.142;7.768;2024-01-11T02:02:07;-2.80;52.60
5868;DHT22;2960;49.142;7.768;2024-01-11T02:04:35;-2.80;52.70
5868;DHT22;2960;49.142;7.768;2024-01-11T02:07:04;-2.80;52.70
5868;DHT22;2960;49.142;7.768;2024-01-11T02:09:33;-2.80;52.80
5868;DHT22;2960;49.142;7.768;2024-01-11T02:12:01;-2.80;52.80
5868;DHT22;2960;49.142;7.768;2024-01-11T02:14:30;-2.80;52.80
5868;DHT22;2960;49.142;7.768;2024-01-11T02:16:58;-2.70;52.90
5868;DHT22;2960;49.142;7.768;2024-01-11T02:19:26;-2.90;52.70
5868;DHT22;2960;49.142;7.768;2024-01-11T02:21:54;-2.90;52.70
5868;DHT22;2960;49.142;7.768;2024-01-11T02:24:23;-2.90;52.80
5868;DHT22;2960;49.142;7.768;2024-01-11T02:27:01;-2.90;52.80
5868;DHT22;2960;49.142;7.768;2024-01-11T02:29:30;-2.90;52.80
5868;DHT22;2960;49.142;7.768;2024-01-11T02:31:59;-2.90;52.80
5868;DHT22;2960;49.142;7.768;2024-01-11T02:34:28;-2.90;52.90
5868;DHT22;2960;49.142;7.768;2024-01-11T02:36:56;-2.90;52.90
5868;DHT22;2960;49.142;7.768;2024-01-11T02:39:25;-3.00;52.90
5868;DHT22;2960;49.142;7.768;2024-01-11T02:41:56;-2.80;53.10
5868;DHT22;2960;49.142;7.768;2024-01-11T02:44:24;-3.00;53.00
5868;DHT22;2960;49.142;7.768;2024-01-11T02:46:51;-3.00;52.90
5868;DHT22;2960;49.142;7.768;2024-01-11T02:49:19;-3.00;52.90
5868;DHT22;2960;49.142;7.768;2024-01-11T02:51:49;-3.00;52.90
5868;DHT22;2960;49.142;7.768;2024-01-11T02:54:16;-3.00;53.00
5868;DHT22;2960;49.142;7.768;2024-01-11T02:56:45;-3.00;53.00
5868;DHT22;2960;49.142;7.768;2024-01-11T02:59:12;-3.00;53.00
5868;DHT22;2960;49.142;7.768;2024-01-11T03:01:40;-3.10;53.00
5868;DHT22;2960;49.142;7.768;2024-01-11T03:04:07;-3.10;53.10
5868;DHT22;2960;49.142;7.768;2024-01-11T03:06:35;-3.10;53.10
5868;DHT22;2960;49.142;7.768;2024-01-11T03:09:02;-3.10;53.10
5868;DHT22;2960;49.142;7.768;2024-01-11T03:11:30;-3.20;53.20
5868;DHT22;2960;49.142;7.768;2024-01-11T03:13:58;-3.20;53.20
5868;DHT22;2960;49.142;7.768;2024-01-11T03:16:26;-3.20;53.20
5868;DHT22;2960;49.142;7.768;2024-01-11T03:18:54;-3.20;53.20
5868;DHT22;2960;49.142;7.768;2024-01-11T03:21:21;-3.20;53.30
5868;DHT22;2960;49.142;7.768;2024-01-11T03:23:48;-3.20;53.30
5868;DHT22;2960;49.142;7.768;2024-01-11T03:26:16;-3.20;53.30
5868;DHT22;2960;49.142;7.768;2024-01-11T03:28:46;-3.20;53.30
5868;DHT22;2960;49.142;7.768;2024-01-11T03:31:15;-3.20;53.30
5868;DHT22;2960;49.142;7.768;2024-01-11T03:33:42;-3.20;53.30
5868;DHT22;2960;49.142;7.768;2024-01-11T03:36:10;-3.20;53.30
5868;DHT22;2960;49.142;7.768;2024-01-11T03:38:38;-3.20;53.30
5868;DHT22;2960;49.142;7.768;2024-01-11T03:41:08;-3.20;53.30
5868;DHT22;2960;49.142;7.768;2024-01-11T03:43:36;-3.20;53.30
5868;DHT22;2960;49.142;7.768;2024-01-11T03:46:03;-3.30;53.20
5868;DHT22;2960;49.142;7.768;2024-01-11T03:48:32;-3.30;53.20
5868;DHT22;2960;49.142;7.768;2024-01-11T03:51:01;-3.30;53.30
5868;DHT22;2960;49.142;7.768;2024-01-11T03:53:28;-3.30;53.30
5868;DHT22;2960;49.142;7.768;2024-01-11T03:55:56;-3.30;53.40
5868;DHT22;2960;49.142;7.768;2024-01-11T03:58:23;-3.30;53.30
5868;DHT22;2960;49.142;7.768;2024-01-11T04:00:52;-3.30;53.30
5868;DHT22;2960;49.142;7.768;2024-01-11T04:03:20;-3.30;53.40
5868;DHT22;2960;49.142;7.768;2024-01-11T04:05:48;-3.40;53.40
5868;DHT22;2960;49.142;7.768;2024-01-11T04:08:16;-3.40;53.40
5868;DHT22;2960;49.142;7.768;2024-01-11T04:10:43;-3.40;53.50
5868;DHT22;2960;49.142;7.768;2024-01-11T04:13:11;-3.40;53.50
5868;DHT22;2960;49.142;7.768;2024-01-11T04:15:38;-3.40;53.50
5868;DHT22;2960;49.142;7.768;2024-01-11T04:18:05;-3.40;53.50
5868;DHT22;2960;49.142;7.768;2024-01-11T04:20:33;-3.50;53.40
5868;DHT22;2960;49.142;7.768;2024-01-11T04:23:02;-3.50;53.50
5868;DHT22;2960;49.142;7.768;2024-01-11T04:25:29;-3.50;53.50
5868;DHT22;2960;49.142;7.768;2024-01-11T04:27:56;-3.50;53.50
5868;DHT22;2960;49.142;7.768;2024-01-11T04:30:24;-3.50;53.60
5868;DHT22;2960;49.142;7.768;2024-01-11T04:32:51;-3.50;53.60
5868;DHT22;2960;49.142;7.768;2024-01-11T04:35:19;-3.50;53.60
5868;DHT22;2960;49.142;7.768;2024-01-11T04:37:46;-3.50;53.60
5868;DHT22;2960;49.142;7.768;2024-01-11T04:40:15;-3.60;53.60
5868;DHT22;2960;49.142;7.768;2024-01-11T04:42:43;-3.60;53.60
5868;DHT22;2960;49.142;7.768;2024-01-11T04:45:11;-3.60;53.60
5868;DHT22;2960;49.142;7.768;2024-01-11T04:47:38;-3.60;53.70
5868;DHT22;2960;49.142;7.768;2024-01-11T04:50:07;-3.60;53.60
5868;DHT22;2960;49.142;7.768;2024-01-11T04:52:35;-3.60;54.30
5868;DHT22;2960;49.142;7.768;2024-01-11T04:55:02;-3.60;53.70
5868;DHT22;2960;49.142;7.768;2024-01-11T04:57:31;-3.60;53.70
5868;DHT22;2960;49.142;7.768;2024-01-11T04:59:58;-3.60;53.70
5868;DHT22;2960;49.142;7.768;2024-01-11T05:02:25;-3.70;53.60
5868;DHT22;2960;49.142;7.768;2024-01-11T05:04:53;-3.70;53.70
5868;DHT22;2960;49.142;7.768;2024-01-11T05:07:20;-3.70;53.70
5868;DHT22;2960;49.142;7.768;2024-01-11T05:09:47;-3.70;53.70
5868;DHT22;2960;49.142;7.768;2024-01-11T05:12:15;-3.70;53.70
5868;DHT22;2960;49.142;7.768;2024-01-11T05:14:43;-3.70;53.70
5868;DHT22;2960;49.142;7.768;2024-01-11T05:17:10;-3.70;53.80
5868;DHT22;2960;49.142;7.768;2024-01-11T05:19:37;-3.70;53.80
5868;DHT22;2960;49.142;7.768;2024-01-11T05:22:04;-3.70;53.90
5868;DHT22;2960;49.142;7.768;2024-01-11T05:24:32;-3.80;53.80
5868;DHT22;2960;49.142;7.768;2024-01-11T05:26:59;-3.80;54.40
5868;DHT22;2960;49.142;7.768;2024-01-11T05:29:26;-3.80;53.80
5868;DHT22;2960;49.142;7.768;2024-01-11T05:31:59;-3.80;53.90
5868;DHT22;2960;49.142;7.768;2024-01-11T05:34:26;-3.80;53.90
5868;DHT22;2960;49.142;7.768;2024-01-11T05:36:53;-3.80;53.90
5868;DHT22;2960;49.142;7.768;2024-01-11T05:39:20;-3.80;53.90
5868;DHT22;2960;49.142;7.768;2024-01-11T05:41:48;-3.80;54.00
5868;DHT22;2960;49.142;7.768;2024-01-11T05:44:15;-3.80;54.00
5868;DHT22;2960;49.142;7.768;2024-01-11T05:46:45;-3.90;53.90
5868;DHT22;2960;49.142;7.768;2024-01-11T05:49:13;-3.90;54.00
5868;DHT22;2960;49.142;7.768;2024-01-11T05:51:40;-3.90;54.00
5868;DHT22;2960;49.142;7.768;2024-01-11T05:54:08;-3.90;53.90
5868;DHT22;2960;49.142;7.768;2024-01-11T05:56:35;-3.90;54.00
5868;DHT22;2960;49.142;7.768;2024-01-11T05:59:02;-3.90;54.00
5868;DHT22;2960;49.142;7.768;2024-01-11T06:01:30;-3.90;54.00
5868;DHT22;2960;49.142;7.768;2024-01-11T06:03:57;-3.90;54.00
5868;DHT22;2960;49.142;7.768;2024-01-11T06:06:26;-3.90;54.00
5868;DHT22;2960;49.142;7.768;2024-01-11T06:08:53;-3.90;53.90
5868;DHT22;2960;49.142;7.768;2024-01-11T06:11:20;-3.90;53.90
5868;DHT22;2960;49.142;7.768;2024-01-11T06:13:47;-3.90;53.90
5868;DHT22;2960;49.142;7.768;2024-01-11T06:16:17;-3.90;53.90
5868;DHT22;2960;49.142;7.768;2024-01-11T06:18:44;-3.90;53.90
5868;DHT22;2960;49.142;7.768;2024-01-11T06:21:12;-3.90;53.90
5868;DHT22;2960;49.142;7.768;2024-01-11T06:23:42;-3.90;53.90
5868;DHT22;2960;49.142;7.768;2024-01-11T06:26:09;-4.00;53.90
5868;DHT22;2960;49.142;7.768;2024-01-11T06:28:37;-4.00;54.00
5868;DHT22;2960;49.142;7.768;2024-01-11T06:31:04;-4.00;54.10
5868;DHT22;2960;49.142;7.768;2024-01-11T06:33:31;-4.00;54.10
5868;DHT22;2960;49.142;7.768;2024-01-11T06:36:03;-4.00;54.10
5868;DHT22;2960;49.142;7.768;2024-01-11T06:38:31;-4.00;54.10
5868;DHT22;2960;49.142;7.768;2024-01-11T06:41:00;-4.00;54.10
5868;DHT22;2960;49.142;7.768;2024-01-11T06:43:27;-4.00;54.20
5868;DHT22;2960;49.142;7.768;2024-01-11T06:45:55;-4.10;54.10
5868;DHT22;2960;49.142;7.768;2024-01-11T06:48:22;-4.10;54.20
5868;DHT22;2960;49.142;7.768;2024-01-11T06:50:50;-4.10;54.20
5868;DHT22;2960;49.142;7.768;2024-01-11T06:53:17;-4.10;54.20
5868;DHT22;2960;49.142;7.768;2024-01-11T06:55:45;-4.10;54.30
5868;DHT22;2960;49.142;7.768;2024-01-11T06:58:16;-4.10;54.20
5868;DHT22;2960;49.142;7.768;2024-01-11T07:00:43;-4.10;54.20
5868;DHT22;2960;49.142;7.768;2024-01-11T07:03:10;-4.20;54.20
5868;DHT22;2960;49.142;7.768;2024-01-11T07:05:38;-4.20;54.20
5868;DHT22;2960;49.142;7.768;2024-01-11T07:08:05;-4.10;54.30
5868;DHT22;2960;49.142;7.768;2024-01-11T07:10:33;-4.20;54.20
5868;DHT22;2960;49.142;7.768;2024-01-11T07:13:00;-4.20;54.20
5868;DHT22;2960;49.142;7.768;2024-01-11T07:15:28;-4.20;54.30
5868;DHT22;2960;49.142;7.768;2024-01-11T07:17:56;-4.20;54.30
5868;DHT22;2960;49.142;7.768;2024-01-11T07:20:23;-4.20;54.30
5868;DHT22;2960;49.142;7.768;2024-01-11T07:22:50;-4.20;54.30
5868;DHT22;2960;49.142;7.768;2024-01-11T07:25:17;-4.20;54.20
5868;DHT22;2960;49.142;7.768;2024-01-11T07:27:44;-4.20;54.20
5868;DHT22;2960;49.142;7.768;2024-01-11T07:30:12;-4.20;54.30
5868;DHT22;2960;49.142;7.768;2024-01-11T07:32:41;-4.20;54.30
5868;DHT22;2960;49.142;7.768;2024-01-11T07:35:08;-4.20;54.30
5868;DHT22;2960;49.142;7.768;2024-01-11T07:37:37;-4.30;54.30
5868;DHT22;2960;49.142;7.768;2024-01-11T07:40:05;-4.30;54.30
5868;DHT22;2960;49.142;7.768;2024-01-11T07:42:36;-4.30;54.40
5868;DHT22;2960;49.142;7.768;2024-01-11T07:45:05;-4.30;54.40
5868;DHT22;2960;49.142;7.768;2024-01-11T07:47:35;-4.30;54.40
5868;DHT22;2960;49.142;7.768;2024-01-11T07:50:05;-4.30;54.40
5868;DHT22;2960;49.142;7.768;2024-01-11T07:52:35;-4.30;54.40
5868;DHT22;2960;49.142;7.768;2024-01-11T07:55:03;-4.30;54.40
5868;DHT22;2960;49.142;7.768;2024-01-11T07:57:33;-4.30;54.40
5868;DHT22;2960;49.142;7.768;2024-01-11T08:00:01;-4.30;54.40
5868;DHT22;2960;49.142;7.768;2024-01-11T08:02:29;-4.20;54.50
5868;DHT22;2960;49.142;7.768;2024-01-11T08:04:57;-4.20;54.50
5868;DHT22;2960;49.142;7.768;2024-01-11T08:07:27;-4.20;54.50
5868;DHT22;2960;49.142;7.768;2024-01-11T08:09:54;-4.20;54.50
5868;DHT22;2960;49.142;7.768;2024-01-11T08:12:22;-4.20;54.50
5868;DHT22;2960;49.142;7.768;2024-01-11T08:14:50;-4.20;54.50
5868;DHT22;2960;49.142;7.768;2024-01-11T08:17:18;-4.20;54.50
5868;DHT22;2960;49.142;7.768;2024-01-11T08:19:46;-4.20;54.50
5868;DHT22;2960;49.142;7.768;2024-01-11T08:22:14;-4.20;54.60
5868;DHT22;2960;49.142;7.768;2024-01-11T08:24:43;-4.10;54.70
5868;DHT22;2960;49.142;7.768;2024-01-11T08:27:11;-4.10;54.70
5868;DHT22;2960;49.142;7.768;2024-01-11T08:29:40;-4.10;54.70
5868;DHT22;2960;49.142;7.768;2024-01-11T08:32:07;-4.10;54.70
5868;DHT22;2960;49.142;7.768;2024-01-11T08:34:34;-4.10;54.70
5868;DHT22;2960;49.142;7.768;2024-01-11T08:37:02;-4.00;54.80
5868;DHT22;2960;49.142;7.768;2024-01-11T08:39:29;-4.00;54.80
5868;DHT22;2960;49.142;7.768;2024-01-11T08:41:58;-4.00;54.80
5868;DHT22;2960;49.142;7.768;2024-01-11T08:44:26;-4.00;54.80
5868;DHT22;2960;49.142;7.768;2024-01-11T08:46:53;-3.90;54.90
5868;DHT22;2960;49.142;7.768;2024-01-11T08:49:20;-3.90;54.90
5868;DHT22;2960;49.142;7.768;2024-01-11T08:51:48;-3.80;55.00
5868;DHT22;2960;49.142;7.768;2024-01-11T08:54:15;-3.70;55.10
5868;DHT22;2960;49.142;7.768;2024-01-11T08:56:42;-3.60;55.20
5868;DHT22;2960;49.142;7.768;2024-01-11T08:59:11;-3.50;55.20
5868;DHT22;2960;49.142;7.768;2024-01-11T09:01:38;-3.30;55.30
5868;DHT22;2960;49.142;7.768;2024-01-11T09:04:06;-3.20;55.30
5868;DHT22;2960;49.142;7.768;2024-01-11T09:06:33;-2.90;55.40
5868;DHT22;2960;49.142;7.768;2024-01-11T09:09:01;-2.70;55.30
5868;DHT22;2960;49.142;7.768;2024-01-11T09:11:28;-2.50;55.30
5868;DHT22;2960;49.142;7.768;2024-01-11T09:13:58;-2.30;55.20
5868;DHT22;2960;49.142;7.768;2024-01-11T09:16:27;-2.10;55.20
5868;DHT22;2960;49.142;7.768;2024-01-11T09:18:54;-1.90;55.20
5868;DHT22;2960;49.142;7.768;2024-01-11T09:21:22;-1.80;55.20
5868;DHT22;2960;49.142;7.768;2024-01-11T09:23:49;-1.60;55.20
5868;DHT22;2960;49.142;7.768;2024-01-11T09:26:16;-1.40;55.30
5868;DHT22;2960;49.142;7.768;2024-01-11T09:28:44;-1.20;55.40
5868;DHT22;2960;49.142;7.768;2024-01-11T09:31:12;-1.00;55.40
5868;DHT22;2960;49.142;7.768;2024-01-11T09:33:41;-0.80;55.30
5868;DHT22;2960;49.142;7.768;2024-01-11T09:36:11;-0.50;55.40
5868;DHT22;2960;49.142;7.768;2024-01-11T09:38:39;-0.30;55.30
5868;DHT22;2960;49.142;7.768;2024-01-11T09:41:08;-0.10;55.30
5868;DHT22;2960;49.142;7.768;2024-01-11T09:43:41;0.10;55.30
5868;DHT22;2960;49.142;7.768;2024-01-11T09:46:10;0.30;55.30
5868;DHT22;2960;49.142;7.768;2024-01-11T09:48:40;0.50;55.30
5868;DHT22;2960;49.142;7.768;2024-01-11T09:51:10;0.70;55.20
5868;DHT22;2960;49.142;7.768;2024-01-11T09:53:38;0.90;55.30
5868;DHT22;2960;49.142;7.768;2024-01-11T09:56:07;1.10;55.30
5868;DHT22;2960;49.142;7.768;2024-01-11T09:58:36;1.30;55.40
5868;DHT22;2960;49.142;7.768;2024-01-11T10:01:08;1.60;55.40
5868;DHT22;2960;49.142;7.768;2024-01-11T10:03:40;1.80;55.50
5868;DHT22;2960;49.142;7.768;2024-01-11T10:06:08;2.10;55.50
5868;DHT22;2960;49.142;7.768;2024-01-11T10:08:36;2.30;55.60
5868;DHT22;2960;49.142;7.768;2024-01-11T10:11:06;2.60;55.80
5868;DHT22;2960;49.142;7.768;2024-01-11T10:13:35;3.00;55.90
5868;DHT22;2960;49.142;7.768;2024-01-11T10:16:07;3.30;56.00
5868;DHT22;2960;49.142;7.768;2024-01-11T10:18:40;3.70;56.00
5868;DHT22;2960;49.142;7.768;2024-01-11T10:21:08;4.00;55.90
5868;DHT22;2960;49.142;7.768;2024-01-11T10:23:36;4.30;55.80
5868;DHT22;2960;49.142;7.768;2024-01-11T10:26:04;4.70;55.70
5868;DHT22;2960;49.142;7.768;2024-01-11T10:28:33;5.10;56.00
5868;DHT22;2960;49.142;7.768;2024-01-11T10:31:03;5.40;55.30
5868;DHT22;2960;49.142;7.768;2024-01-11T10:33:30;5.80;55.20
5868;DHT22;2960;49.142;7.768;2024-01-11T10:36:01;6.10;55.00
5868;DHT22;2960;49.142;7.768;2024-01-11T10:38:30;6.40;54.80
5868;DHT22;2960;49.142;7.768;2024-01-11T10:41:05;6.70;54.60
5868;DHT22;2960;49.142;7.768;2024-01-11T10:43:37;7.10;54.40
5868;DHT22;2960;49.142;7.768;2024-01-11T10:46:05;7.40;54.30
5868;DHT22;2960;49.142;7.768;2024-01-11T10:48:37;7.70;54.00
5868;DHT22;2960;49.142;7.768;2024-01-11T10:51:08;8.00;53.60
5868;DHT22;2960;49.142;7.768;2024-01-11T10:53:42;8.30;53.40
5868;DHT22;2960;49.142;7.768;2024-01-11T10:56:12;8.50;53.00
5868;DHT22;2960;49.142;7.768;2024-01-11T10:58:40;8.60;52.80
5868;DHT22;2960;49.142;7.768;2024-01-11T11:01:09;8.80;52.50
5868;DHT22;2960;49.142;7.768;2024-01-11T11:03:38;8.90;52.10
5868;DHT22;2960;49.142;7.768;2024-01-11T11:06:09;9.10;52.20
5868;DHT22;2960;49.142;7.768;2024-01-11T11:08:38;9.20;52.10
5868;DHT22;2960;49.142;7.768;2024-01-11T11:11:06;9.50;52.30
5868;DHT22;2960;49.142;7.768;2024-01-11T11:13:34;9.60;51.60
5868;DHT22;2960;49.142;7.768;2024-01-11T11:16:02;9.80;51.40
5868;DHT22;2960;49.142;7.768;2024-01-11T11:18:31;10.00;50.20
5868;DHT22;2960;49.142;7.768;2024-01-11T11:21:00;10.10;50.00
5868;DHT22;2960;49.142;7.768;2024-01-11T11:23:29;10.40;49.70
5868;DHT22;2960;49.142;7.768;2024-01-11T11:25:56;10.60;49.60
5868;DHT22;2960;49.142;7.768;2024-01-11T11:28:24;10.90;48.90
5868;DHT22;2960;49.142;7.768;2024-01-11T11:30:52;11.10;48.80
5868;DHT22;2960;49.142;7.768;2024-01-11T11:33:23;11.40;48.30
5868;DHT22;2960;49.142;7.768;2024-01-11T11:35:53;11.50;47.70
5868;DHT22;2960;49.142;7.768;2024-01-11T11:38:23;11.70;47.20
5868;DHT22;2960;49.142;7.768;2024-01-11T11:40:53;11.80;47.00
5868;DHT22;2960;49.142;7.768;2024-01-11T11:43:22;11.90;46.60
5868;DHT22;2960;49.142;7.768;2024-01-11T11:45:51;12.00;46.30
5868;DHT22;2960;49.142;7.768;2024-01-11T11:48:49;12.10;46.00
5868;DHT22;2960;49.142;7.768;2024-01-11T11:51:20;12.20;46.00
5868;DHT22;2960;49.142;7.768;2024-01-11T11:53:49;12.30;45.90
5868;DHT22;2960;49.142;7.768;2024-01-11T11:56:19;12.40;45.10
5868;DHT22;2960;49.142;7.768;2024-01-11T11:58:48;12.50;45.00
5868;DHT22;2960;49.142;7.768;2024-01-11T12:01:17;12.60;44.80
5868;DHT22;2960;49.142;7.768;2024-01-11T12:03:45;12.70;44.60
5868;DHT22;2960;49.142;7.768;2024-01-11T12:06:16;12.80;44.40
5868;DHT22;2960;49.142;7.768;2024-01-11T12:08:46;12.90;44.20
5868;DHT22;2960;49.142;7.768;2024-01-11T12:11:15;13.10;44.10
5868;DHT22;2960;49.142;7.768;2024-01-11T12:13:46;13.20;43.90
5868;DHT22;2960;49.142;7.768;2024-01-11T12:16:13;13.30;43.00
5868;DHT22;2960;49.142;7.768;2024-01-11T12:18:41;13.40;42.60
5868;DHT22;2960;49.142;7.768;2024-01-11T12:21:08;13.40;42.70
5868;DHT22;2960;49.142;7.768;2024-01-11T12:23:37;13.50;42.60
5868;DHT22;2960;49.142;7.768;2024-01-11T12:26:06;13.50;42.60
5868;DHT22;2960;49.142;7.768;2024-01-11T12:28:39;13.60;42.60
5868;DHT22;2960;49.142;7.768;2024-01-11T12:31:07;13.70;42.40
5868;DHT22;2960;49.142;7.768;2024-01-11T12:33:35;13.80;42.40
5868;DHT22;2960;49.142;7.768;2024-01-11T12:36:05;13.90;42.30
5868;DHT22;2960;49.142;7.768;2024-01-11T12:38:34;14.00;41.70
5868;DHT22;2960;49.142;7.768;2024-01-11T12:41:01;14.00;40.90
5868;DHT22;2960;49.142;7.768;2024-01-11T12:43:29;14.10;41.10
5868;DHT22;2960;49.142;7.768;2024-01-11T12:45:57;14.10;41.10
5868;DHT22;2960;49.142;7.768;2024-01-11T12:48:24;14.20;41.10
5868;DHT22;2960;49.142;7.768;2024-01-11T12:50:52;14.30;41.10
5868;DHT22;2960;49.142;7.768;2024-01-11T12:53:20;14.40;41.10
5868;DHT22;2960;49.142;7.768;2024-01-11T12:55:48;14.50;41.00
5868;DHT22;2960;49.142;7.768;2024-01-11T12:58:20;14.60;40.70
5868;DHT22;2960;49.142;7.768;2024-01-11T13:00:48;14.60;40.40
5868;DHT22;2960;49.142;7.768;2024-01-11T13:03:17;14.60;40.30
5868;DHT22;2960;49.142;7.768;2024-01-11T13:05:45;14.70;40.30
5868;DHT22;2960;49.142;7.768;2024-01-11T13:08:12;14.80;40.60
5868;DHT22;2960;49.142;7.768;2024-01-11T13:10:40;14.80;39.90
5868;DHT22;2960;49.142;7.768;2024-01-11T13:13:07;14.90;39.80
5868;DHT22;2960;49.142;7.768;2024-01-11T13:15:34;15.00;39.80
5868;DHT22;2960;49.142;7.768;2024-01-11T13:18:03;15.00;39.60
5868;DHT22;2960;49.142;7.768;2024-01-11T13:20:32;15.10;39.50
5868;DHT22;2960;49.142;7.768;2024-01-11T13:23:13;15.10;39.30
5868;DHT22;2960;49.142;7.768;2024-01-11T13:25:41;15.10;39.30
5868;DHT22;2960;49.142;7.768;2024-01-11T13:28:08;15.00;39.20
5868;DHT22;2960;49.142;7.768;2024-01-11T13:30:37;14.90;39.10
5868;DHT22;2960;49.142;7.768;2024-01-11T13:33:05;14.80;39.00
5868;DHT22;2960;49.142;7.768;2024-01-11T13:35:35;14.60;38.80
5868;DHT22;2960;49.142;7.768;2024-01-11T13:38:03;14.50;38.80
5868;DHT22;2960;49.142;7.768;2024-01-11T13:40:30;14.30;38.70
5868;DHT22;2960;49.142;7.768;2024-01-11T13:42:58;14.10;38.60
5868;DHT22;2960;49.142;7.768;2024-01-11T13:45:26;13.90;38.60
5868;DHT22;2960;49.142;7.768;2024-01-11T13:47:53;13.70;38.70
5868;DHT22;2960;49.142;7.768;2024-01-11T13:50:21;13.60;38.50
5868;DHT22;2960;49.142;7.768;2024-01-11T13:52:51;13.60;38.50
5868;DHT22;2960;49.142;7.768;2024-01-11T13:55:18;13.60;38.30
5868;DHT22;2960;49.142;7.768;2024-01-11T13:57:47;13.50;38.10
5868;DHT22;2960;49.142;7.768;2024-01-11T14:00:15;13.30;37.90
5868;DHT22;2960;49.142;7.768;2024-01-11T14:02:44;13.00;38.00
5868;DHT22;2960;49.142;7.768;2024-01-11T14:05:12;12.60;38.00
5868;DHT22;2960;49.142;7.768;2024-01-11T14:07:41;12.20;38.00
5868;DHT22;2960;49.142;7.768;2024-01-11T14:10:11;11.90;38.30
5868;DHT22;2960;49.142;7.768;2024-01-11T14:12:39;11.50;38.40
5868;DHT22;2960;49.142;7.768;2024-01-11T14:15:08;11.20;38.50
5868;DHT22;2960;49.142;7.768;2024-01-11T14:17:38;10.80;38.60
5868;DHT22;2960;49.142;7.768;2024-01-11T14:20:06;10.50;38.80
5868;DHT22;2960;49.142;7.768;2024-01-11T14:22:37;10.10;38.90
5868;DHT22;2960;49.142;7.768;2024-01-11T14:25:05;9.90;40.60
5868;DHT22;2960;49.142;7.768;2024-01-11T14:27:35;9.60;40.20
5868;DHT22;2960;49.142;7.768;2024-01-11T14:30:02;9.30;40.30
5868;DHT22;2960;49.142;7.768;2024-01-11T14:32:31;9.10;40.50
5868;DHT22;2960;49.142;7.768;2024-01-11T14:34:59;8.90;40.60
5868;DHT22;2960;49.142;7.768;2024-01-11T14:37:30;8.80;40.70
5868;DHT22;2960;49.142;7.768;2024-01-11T14:39:57;8.80;40.70
5868;DHT22;2960;49.142;7.768;2024-01-11T14:42:25;8.80;40.70
5868;DHT22;2960;49.142;7.768;2024-01-11T14:44:54;8.90;40.70
5868;DHT22;2960;49.142;7.768;2024-01-11T14:47:22;8.70;40.50
5868;DHT22;2960;49.142;7.768;2024-01-11T14:49:51;8.60;40.60
5868;DHT22;2960;49.142;7.768;2024-01-11T14:52:18;8.70;40.60
5868;DHT22;2960;49.142;7.768;2024-01-11T14:54:46;8.60;40.40
5868;DHT22;2960;49.142;7.768;2024-01-11T14:57:14;8.70;40.50
5868;DHT22;2960;49.142;7.768;2024-01-11T14:59:41;8.70;40.50
5868;DHT22;2960;49.142;7.768;2024-01-11T15:02:10;8.80;40.50
5868;DHT22;2960;49.142;7.768;2024-01-11T15:04:38;8.80;40.50
5868;DHT22;2960;49.142;7.768;2024-01-11T15:07:05;8.90;40.60
5868;DHT22;2960;49.142;7.768;2024-01-11T15:09:33;9.00;40.60
5868;DHT22;2960;49.142;7.768;2024-01-11T15:12:01;9.00;40.50
5868;DHT22;2960;49.142;7.768;2024-01-11T15:14:28;8.80;41.10
5868;DHT22;2960;49.142;7.768;2024-01-11T15:16:55;8.60;40.50
5868;DHT22;2960;49.142;7.768;2024-01-11T15:19:24;8.30;40.60
5868;DHT22;2960;49.142;7.768;2024-01-11T15:21:51;8.10;40.80
5868;DHT22;2960;49.142;7.768;2024-01-11T15:24:18;7.80;41.00
5868;DHT22;2960;49.142;7.768;2024-01-11T15:26:45;7.50;41.00
5868;DHT22;2960;49.142;7.768;2024-01-11T15:29:13;7.20;41.10
5868;DHT22;2960;49.142;7.768;2024-01-11T15:31:41;7.00;41.40
5868;DHT22;2960;49.142;7.768;2024-01-11T15:34:10;6.80;41.50
5868;DHT22;2960;49.142;7.768;2024-01-11T15:36:39;6.50;41.60
5868;DHT22;2960;49.142;7.768;2024-01-11T15:39:06;6.30;41.70
5868;DHT22;2960;49.142;7.768;2024-01-11T15:41:34;6.10;41.90
5868;DHT22;2960;49.142;7.768;2024-01-11T15:44:01;6.00;42.00
5868;DHT22;2960;49.142;7.768;2024-01-11T15:46:29;5.80;42.10
5868;DHT22;2960;49.142;7.768;2024-01-11T15:48:56;5.60;42.20
5868;DHT22;2960;49.142;7.768;2024-01-11T15:51:23;5.30;42.90
5868;DHT22;2960;49.142;7.768;2024-01-11T15:53:52;5.20;42.50
5868;DHT22;2960;49.142;7.768;2024-01-11T15:56:20;5.10;42.60
5868;DHT22;2960;49.142;7.768;2024-01-11T15:58:47;5.00;42.70
5868;DHT22;2960;49.142;7.768;2024-01-11T16:01:14;4.80;42.80
5868;DHT22;2960;49.142;7.768;2024-01-11T16:03:41;4.70;42.90
5868;DHT22;2960;49.142;7.768;2024-01-11T16:06:10;4.60;43.10
5868;DHT22;2960;49.142;7.768;2024-01-11T16:08:37;4.50;43.20
5868;DHT22;2960;49.142;7.768;2024-01-11T16:11:06;4.40;43.30